DTTJ/DJE METAR and TAF weather

Enter ICAO airport designator
Station Type Date Time Source
DTTJ METAR 2022/05/25 00:30 UTC NOAA

DTTJ 250030Z 16008KT CAVOK 25/11 Q1009 NOSIG


Station Type Date Time Source
DTTJ Decoded METAR 2022/05/25 00:30 UTC NOAA

Djerba Mellita, Tunisia (DTTJ) 33-52N 010-46E 4M
May 24, 2022 - 08:30 PM EDT / 2022.05.25 0030 UTC
Wind: from the SSE (160 degrees) at 9 MPH (8 KT):0
Visibility: greater than 7 mile(s):0
Temperature: 77 F (25 C)
Dew Point: 51 F (11 C)
Relative Humidity: 41%
Pressure (altimeter): 29.80 in. Hg (1009 hPa)
ob: DTTJ 250030Z 16008KT CAVOK 25/11 Q1009 NOSIG
cycle: 0

Station Type Date Time Source
DTTJ TAF 2022/05/24 18:54 UTC NOAA

TAF DTTJ 241700Z 2418/2518 12013KT CAVOK
BECMG 2422/2424 19010KT
BECMG 2510/2512 VRB03KT
BECMG 2513/2515 10015KT PROB30
TEMPO 2514/2518 10020G30KT

Example: see airport list